logo
Search for airport 
image banner adimage banner adimage banner ad
image banner ad

EIBG - Ballinarooga

Located in Ballinarooga, Ireland

ICAO - , IATA -

Data provided by Airmate  

General information

Coordinates: N52°27'28" W8°52'44"
Elevation is 349 feet MSL.
 
View others Airports in County Limerick

Operational data

Special qualification required
Current time UTC:
Current local time:
Weather at : EINN - Shannon ( 27 km )
METAR: EINN 302230Z 35010G22KT 9999 BKN028 12/07 Q1025 NOSIG
TAF: TAF AMD EINN 301849Z 3018/3118 33010KT 9999 FEW020 BKN035 BECMG 3114/3116 30010KT
View NOTAMs / SUP AIP / TFR affecting this airport [VIEW]
Communications frequencies: [VIEW]

Runways:

Airport contact information

Address: Ballinarooga Ireland

Satellite view of EIBG